In Salah, Algeria
Current Conditions -  °F | °C
As of 8:00 PM on Monday 22 Dec 2014 (Local Time) from DAUI Reporting Station
Clear Clear  
Wind Chill: 64°   Ceiling: Unl
Heat Index: 64°   Visibility: 6mi
Dew Point: 37°   Wind: 18mph
Humidity: 37%   Direction: 70°ENE
Pressure: 30.3"   Gusts: NA
Location:  27.19°N, 2.47°E
Report Text: DAUI 221900Z 07016KT CAVOK 18/03 Q1026
Loading
Personal Weather Stations






























Interactive Weather Map New forecast layout! Learn more

10-Day Weather Forecast

Advertisements
Track Severe Weather on mobile